sensor_id;sensor_type;location;lat;lon;timestamp;pressure;altitude;pressure_sealevel;temperature;humidity
69667;BME280;66534;52.370;4.832;2023-05-20T00:00:04;102620.31;;;12.98;100.00
69667;BME280;66534;52.370;4.832;2023-05-20T00:00:35;102617.63;;;13.00;100.00
69667;BME280;66534;52.370;4.832;2023-05-20T00:01:06;102618.53;;;13.00;100.00
69667;BME280;66534;52.370;4.832;2023-05-20T00:01:36;102620.19;;;13.04;100.00
69667;BME280;66534;52.370;4.832;2023-05-20T00:02:06;102621.22;;;12.97;100.00
69667;BME280;66534;52.370;4.832;2023-05-20T00:02:37;102626.63;;;12.91;100.00
69667;BME280;66534;52.370;4.832;2023-05-20T00:03:07;102615.22;;;12.92;100.00
69667;BME280;66534;52.370;4.832;2023-05-20T00:03:37;102620.19;;;13.03;100.00
69667;BME280;66534;52.370;4.832;2023-05-20T00:04:08;102619.13;;;13.10;100.00
69667;BME280;66534;52.370;4.832;2023-05-20T00:04:38;102608.97;;;12.96;100.00
69667;BME280;66534;52.370;4.832;2023-05-20T00:05:10;102613.31;;;12.97;100.00
69667;BME280;66534;52.370;4.832;2023-05-20T00:05:41;102615.09;;;12.96;100.00
69667;BME280;66534;52.370;4.832;2023-05-20T00:06:12;102618.66;;;12.94;100.00
69667;BME280;66534;52.370;4.832;2023-05-20T00:06:42;102614.38;;;12.90;100.00
69667;BME280;66534;52.370;4.832;2023-05-20T00:07:12;102617.09;;;12.87;100.00
69667;BME280;66534;52.370;4.832;2023-05-20T00:07:43;102617.06;;;12.88;100.00
69667;BME280;66534;52.370;4.832;2023-05-20T00:08:13;102607.50;;;12.84;100.00
69667;BME280;66534;52.370;4.832;2023-05-20T00:08:44;102614.50;;;12.85;100.00
69667;BME280;66534;52.370;4.832;2023-05-20T00:09:14;102616.03;;;12.94;100.00
69667;BME280;66534;52.370;4.832;2023-05-20T00:09:46;102612.34;;;13.01;100.00
69667;BME280;66534;52.370;4.832;2023-05-20T00:10:16;102613.88;;;13.08;100.00
69667;BME280;66534;52.370;4.832;2023-05-20T00:10:47;102609.84;;;12.96;100.00
69667;BME280;66534;52.370;4.832;2023-05-20T00:11:17;102610.97;;;12.86;100.00
69667;BME280;66534;52.370;4.832;2023-05-20T00:11:47;102611.69;;;12.91;100.00
69667;BME280;66534;52.370;4.832;2023-05-20T00:12:18;102614.91;;;13.03;100.00
69667;BME280;66534;52.370;4.832;2023-05-20T00:12:48;102610.63;;;13.00;100.00
69667;BME280;66534;52.370;4.832;2023-05-20T00:13:18;102611.50;;;12.99;100.00
69667;BME280;66534;52.370;4.832;2023-05-20T00:13:49;102611.59;;;12.96;100.00
69667;BME280;66534;52.370;4.832;2023-05-20T00:14:19;102616.66;;;13.04;100.00
69667;BME280;66534;52.370;4.832;2023-05-20T00:14:50;102618.28;;;13.08;100.00
69667;BME280;66534;52.370;4.832;2023-05-20T00:15:20;102614.00;;;13.04;100.00
69667;BME280;66534;52.370;4.832;2023-05-20T00:15:51;102614.91;;;13.03;100.00
69667;BME280;66534;52.370;4.832;2023-05-20T00:16:22;102611.31;;;13.07;100.00
69667;BME280;66534;52.370;4.832;2023-05-20T00:16:52;102616.63;;;13.05;100.00
69667;BME280;66534;52.370;4.832;2023-05-20T00:17:23;102613.31;;;12.97;100.00
69667;BME280;66534;52.370;4.832;2023-05-20T00:17:55;102613.34;;;12.95;100.00
69667;BME280;66534;52.370;4.832;2023-05-20T00:18:26;102617.09;;;12.87;100.00
69667;BME280;66534;52.370;4.832;2023-05-20T00:18:56;102616.22;;;12.86;100.00
69667;BME280;66534;52.370;4.832;2023-05-20T00:19:27;102618.00;;;12.86;100.00
69667;BME280;66534;52.370;4.832;2023-05-20T00:19:57;102619.72;;;12.87;100.00
69667;BME280;66534;52.370;4.832;2023-05-20T00:20:29;102612.53;;;12.93;100.00
69667;BME280;66534;52.370;4.832;2023-05-20T00:20:59;102613.88;;;13.10;100.00
69667;BME280;66534;52.370;4.832;2023-05-20T00:21:30;102617.63;;;13.01;100.00
69667;BME280;66534;52.370;4.832;2023-05-20T00:22:00;102617.63;;;13.01;100.00
69667;BME280;66534;52.370;4.832;2023-05-20T00:22:31;102621.06;;;13.03;100.00
69667;BME280;66534;52.370;4.832;2023-05-20T00:23:01;102614.06;;;13.02;100.00
69667;BME280;66534;52.370;4.832;2023-05-20T00:23:32;102614.97;;;13.01;100.00
69667;BME280;66534;52.370;4.832;2023-05-20T00:24:02;102615.00;;;13.00;100.00
69667;BME280;66534;52.370;4.832;2023-05-20T00:24:32;102621.03;;;13.05;100.00
69667;BME280;66534;52.370;4.832;2023-05-20T00:25:03;102618.53;;;13.00;100.00
69667;BME280;66534;52.370;4.832;2023-05-20T00:25:34;102614.00;;;13.05;100.00
69667;BME280;66534;52.370;4.832;2023-05-20T00:26:04;102616.66;;;13.04;100.00
69667;BME280;66534;52.370;4.832;2023-05-20T00:26:35;102616.66;;;13.04;100.00
69667;BME280;66534;52.370;4.832;2023-05-20T00:27:05;102615.84;;;13.02;100.00
69667;BME280;66534;52.370;4.832;2023-05-20T00:27:35;102617.69;;;12.98;100.00
69667;BME280;66534;52.370;4.832;2023-05-20T00:28:06;102614.97;;;13.01;100.00
69667;BME280;66534;52.370;4.832;2023-05-20T00:28:36;102620.25;;;13.01;100.00
69667;BME280;66534;52.370;4.832;2023-05-20T00:29:06;102617.53;;;13.04;100.00
69667;BME280;66534;52.370;4.832;2023-05-20T00:29:37;102614.97;;;13.01;100.00
69667;BME280;66534;52.370;4.832;2023-05-20T00:30:08;102613.94;;;13.07;100.00
69667;BME280;66534;52.370;4.832;2023-05-20T00:30:39;102612.16;;;13.09;100.00
69667;BME280;66534;52.370;4.832;2023-05-20T00:31:10;102609.78;;;12.98;100.00
69667;BME280;66534;52.370;4.832;2023-05-20T00:31:41;102611.56;;;12.98;100.00
69667;BME280;66534;52.370;4.832;2023-05-20T00:32:12;102608.06;;;12.95;100.00
69667;BME280;66534;52.370;4.832;2023-05-20T00:32:43;102613.88;;;13.10;100.00
69667;BME280;66534;52.370;4.832;2023-05-20T00:33:13;102608.00;;;12.99;100.00
69667;BME280;66534;52.370;4.832;2023-05-20T00:33:43;102610.03;;;12.87;100.00
69667;BME280;66534;52.370;4.832;2023-05-20T00:34:14;102607.16;;;12.98;100.00
69667;BME280;66534;52.370;4.832;2023-05-20T00:34:54;102613.13;;;13.05;100.00
69667;BME280;66534;52.370;4.832;2023-05-20T00:35:25;102615.09;;;13.29;100.00
69667;BME280;66534;52.370;4.832;2023-05-20T00:35:55;102607.84;;;13.37;100.00
69667;BME280;66534;52.370;4.832;2023-05-20T00:36:26;102608.25;;;13.24;100.00
69667;BME280;66534;52.370;4.832;2023-05-20T00:36:56;102609.97;;;13.25;100.00
69667;BME280;66534;52.370;4.832;2023-05-20T00:37:27;102616.50;;;13.10;100.00
69667;BME280;66534;52.370;4.832;2023-05-20T00:37:57;102612.38;;;13.00;100.00
69667;BME280;66534;52.370;4.832;2023-05-20T00:38:27;102611.88;;;12.85;100.00
69667;BME280;66534;52.370;4.832;2023-05-20T00:38:58;102610.22;;;12.81;100.00
69667;BME280;66534;52.370;4.832;2023-05-20T00:39:28;102614.50;;;12.85;100.00
69667;BME280;66534;52.370;4.832;2023-05-20T00:39:59;102604.72;;;12.90;100.00
69667;BME280;66534;52.370;4.832;2023-05-20T00:40:29;102614.31;;;12.93;100.00
69667;BME280;66534;52.370;4.832;2023-05-20T00:41:00;102613.41;;;12.94;100.00
69667;BME280;66534;52.370;4.832;2023-05-20T00:41:33;102614.97;;;13.01;100.00
69667;BME280;66534;52.370;4.832;2023-05-20T00:42:04;102618.63;;;12.95;100.00
69667;BME280;66534;52.370;4.832;2023-05-20T00:42:35;102614.31;;;12.91;100.00
69667;BME280;66534;52.370;4.832;2023-05-20T00:43:05;102613.19;;;13.02;100.00
69667;BME280;66534;52.370;4.832;2023-05-20T00:43:35;102609.03;;;12.93;100.00
69667;BME280;66534;52.370;4.832;2023-05-20T00:44:06;102606.69;;;12.82;100.00
69667;BME280;66534;52.370;4.832;2023-05-20T00:44:36;102613.66;;;12.85;100.00
69667;BME280;66534;52.370;4.832;2023-05-20T00:45:07;102612.25;;;12.70;100.00
69667;BME280;66534;52.370;4.832;2023-05-20T00:45:37;102609.53;;;12.73;100.00
69667;BME280;66534;52.370;4.832;2023-05-20T00:46:08;102607.75;;;12.75;100.00
69667;BME280;66534;52.370;4.832;2023-05-20T00:46:39;102614.06;;;12.68;100.00
69667;BME280;66534;52.370;4.832;2023-05-20T00:47:09;102614.75;;;12.75;100.00
69667;BME280;66534;52.370;4.832;2023-05-20T00:47:40;102625.22;;;12.79;100.00
69667;BME280;66534;52.370;4.832;2023-05-20T00:48:11;102607.16;;;12.64;100.00
69667;BME280;66534;52.370;4.832;2023-05-20T00:48:42;102608.56;;;12.77;100.00
69667;BME280;66534;52.370;4.832;2023-05-20T00:49:14;102605.31;;;12.67;100.00
69667;BME280;66534;52.370;4.832;2023-05-20T00:49:45;102613.94;;;12.73;100.00
69667;BME280;66534;52.370;4.832;2023-05-20T00:50:17;102606.78;;;12.78;100.00
69667;BME280;66534;52.370;4.832;2023-05-20T00:50:48;102609.53;;;12.73;100.00
69667;BME280;66534;52.370;4.832;2023-05-20T00:51:18;102613.09;;;12.72;100.00
69667;BME280;66534;52.370;4.832;2023-05-20T00:51:49;102609.53;;;12.73;100.00
69667;BME280;66534;52.370;4.832;2023-05-20T00:52:20;102608.69;;;12.73;100.00
69667;BME280;66534;52.370;4.832;2023-05-20T00:52:51;102608.81;;;12.68;100.00
69667;BME280;66534;52.370;4.832;2023-05-20T00:53:24;102610.56;;;12.67;100.00
69667;BME280;66534;52.370;4.832;2023-05-20T00:53:54;102610.59;;;12.66;100.00
69667;BME280;66534;52.370;4.832;2023-05-20T00:54:25;102609.72;;;12.65;100.00
69667;BME280;66534;52.370;4.832;2023-05-20T00:54:55;102607.94;;;12.67;100.00
69667;BME280;66534;52.370;4.832;2023-05-20T00:55:28;102603.31;;;12.77;100.00
69667;BME280;66534;52.370;4.832;2023-05-20T00:55:58;102600.72;;;12.76;100.00
69667;BME280;66534;52.370;4.832;2023-05-20T00:56:29;102609.59;;;12.71;100.00
69667;BME280;66534;52.370;4.832;2023-05-20T00:57:00;102607.75;;;12.75;100.00
69667;BME280;66534;52.370;4.832;2023-05-20T00:57:32;102606.88;;;12.75;100.00
69667;BME280;66534;52.370;4.832;2023-05-20T00:58:02;102607.66;;;12.78;100.00
69667;BME280;66534;52.370;4.832;2023-05-20T00:58:33;102614.19;;;12.63;100.00
69667;BME280;66534;52.370;4.832;2023-05-20T00:59:05;102613.31;;;12.63;100.00
69667;BME280;66534;52.370;4.832;2023-05-20T00:59:36;102604.44;;;12.67;100.00
69667;BME280;66534;52.370;4.832;2023-05-20T01:00:08;102609.53;;;12.73;100.00
69667;BME280;66534;52.370;4.832;2023-05-20T01:00:39;102608.75;;;12.69;100.00
69667;BME280;66534;52.370;4.832;2023-05-20T01:01:10;102605.31;;;12.66;100.00
69667;BME280;66534;52.370;4.832;2023-05-20T01:01:40;102602.75;;;12.64;100.00
69667;BME280;66534;52.370;4.832;2023-05-20T01:02:11;102606.31;;;12.62;100.00
69667;BME280;66534;52.370;4.832;2023-05-20T01:02:41;102605.53;;;12.58;100.00
69667;BME280;66534;52.370;4.832;2023-05-20T01:03:12;102604.63;;;12.59;100.00
69667;BME280;66534;52.370;4.832;2023-05-20T01:03:43;102609.03;;;12.59;100.00
69667;BME280;66534;52.370;4.832;2023-05-20T01:04:13;102600.22;;;12.60;100.00
69667;BME280;66534;52.370;4.832;2023-05-20T01:04:43;102605.56;;;12.57;100.00
69667;BME280;66534;52.370;4.832;2023-05-20T01:05:16;102606.53;;;12.54;100.00
69667;BME280;66534;52.370;4.832;2023-05-20T01:05:46;102599.38;;;12.59;100.00
69667;BME280;66534;52.370;4.832;2023-05-20T01:06:17;102596.44;;;12.70;100.00
69667;BME280;66534;52.370;4.832;2023-05-20T01:06:47;102593.78;;;12.71;100.00
69667;BME280;66534;52.370;4.832;2023-05-20T01:07:18;102603.50;;;12.69;100.00
69667;BME280;66534;52.370;4.832;2023-05-20T01:07:49;102599.19;;;12.65;100.00
69667;BME280;66534;52.370;4.832;2023-05-20T01:08:23;102599.31;;;12.62;100.00
69667;BME280;66534;52.370;4.832;2023-05-20T01:08:54;102594.03;;;12.62;100.00
69667;BME280;66534;52.370;4.832;2023-05-20T01:09:25;102594.84;;;12.64;100.00
69667;BME280;66534;52.370;4.832;2023-05-20T01:09:55;102594.84;;;12.64;100.00
69667;BME280;66534;52.370;4.832;2023-05-20T01:10:26;102591.31;;;12.65;100.00
69667;BME280;66534;52.370;4.832;2023-05-20T01:11:03;102596.66;;;12.62;100.00
69667;BME280;66534;52.370;4.832;2023-05-20T01:11:39;102594.03;;;12.62;100.00
69667;BME280;66534;52.370;4.832;2023-05-20T01:12:15;102595.88;;;12.59;100.00
69667;BME280;66534;52.370;4.832;2023-05-20T01:12:51;102585.97;;;12.68;100.00
69667;BME280;66534;52.370;4.832;2023-05-20T01:13:26;102601.84;;;12.65;100.00
69667;BME280;66534;52.370;4.832;2023-05-20T01:14:04;102585.13;;;12.66;100.00
69667;BME280;66534;52.370;4.832;2023-05-20T01:14:42;102595.63;;;12.68;100.00
69667;BME280;66534;52.370;4.832;2023-05-20T01:15:17;102591.19;;;12.70;100.00
69667;BME280;66534;52.370;4.832;2023-05-20T01:15:50;102590.19;;;12.74;100.00
69667;BME280;66534;52.370;4.832;2023-05-20T01:16:24;102588.44;;;12.75;100.00
69667;BME280;66534;52.370;4.832;2023-05-20T01:16:55;102589.34;;;12.74;100.00
69667;BME280;66534;52.370;4.832;2023-05-20T01:17:31;102590.19;;;12.74;100.00
69667;BME280;66534;52.370;4.832;2023-05-20T01:18:07;102592.25;;;12.63;100.00
69667;BME280;66534;52.370;4.832;2023-05-20T01:18:39;102591.41;;;12.62;100.00
69667;BME280;66534;52.370;4.832;2023-05-20T01:19:17;102593.16;;;12.62;100.00
69667;BME280;66534;52.370;4.832;2023-05-20T01:19:59;102586.94;;;12.64;100.00
69667;BME280;66534;52.370;4.832;2023-05-20T01:20:30;102588.84;;;12.59;100.00
69667;BME280;66534;52.370;4.832;2023-05-20T01:21:02;102588.00;;;12.57;100.00
69667;BME280;66534;52.370;4.832;2023-05-20T01:21:33;102590.69;;;12.56;100.00
69667;BME280;66534;52.370;4.832;2023-05-20T01:22:05;102582.53;;;12.65;100.00
69667;BME280;66534;52.370;4.832;2023-05-20T01:22:47;102584.25;;;12.67;100.00
69667;BME280;66534;52.370;4.832;2023-05-20T01:23:19;102581.75;;;12.61;100.00
69667;BME280;66534;52.370;4.832;2023-05-20T01:23:49;102584.25;;;12.66;100.00
69667;BME280;66534;52.370;4.832;2023-05-20T01:24:20;102586.03;;;12.67;100.00
69667;BME280;66534;52.370;4.832;2023-05-20T01:24:50;102578.94;;;12.69;100.00
69667;BME280;66534;52.370;4.832;2023-05-20T01:25:23;102588.97;;;12.55;100.00
69667;BME280;66534;52.370;4.832;2023-05-20T01:25:55;102590.63;;;12.57;100.00
69667;BME280;66534;52.370;4.832;2023-05-20T01:26:25;102576.50;;;12.61;100.00
69667;BME280;66534;52.370;4.832;2023-05-20T01:26:57;102585.13;;;12.66;100.00
69667;BME280;66534;52.370;4.832;2023-05-20T01:27:27;102586.22;;;12.59;100.00
69667;BME280;66534;52.370;4.832;2023-05-20T01:27:59;102597.47;;;12.64;100.00
69667;BME280;66534;52.370;4.832;2023-05-20T01:28:29;102586.03;;;12.65;100.00
69667;BME280;66534;52.370;4.832;2023-05-20T01:29:00;102585.25;;;12.62;100.00
69667;BME280;66534;52.370;4.832;2023-05-20T01:29:33;102585.41;;;12.56;100.00
69667;BME280;66534;52.370;4.832;2023-05-20T01:30:03;102583.72;;;12.53;100.00
69667;BME280;66534;52.370;4.832;2023-05-20T01:30:37;102585.56;;;12.50;100.00
69667;BME280;66534;52.370;4.832;2023-05-20T01:31:14;102587.97;;;12.59;100.00
69667;BME280;66534;52.370;4.832;2023-05-20T01:31:49;102582.03;;;12.51;100.00
69667;BME280;66534;52.370;4.832;2023-05-20T01:32:27;102584.66;;;12.51;100.00
69667;BME280;66534;52.370;4.832;2023-05-20T01:33:06;102576.66;;;12.54;100.00
69667;BME280;66534;52.370;4.832;2023-05-20T01:33:40;102573.72;;;12.67;100.00
69667;BME280;66534;52.370;4.832;2023-05-20T01:34:12;102581.63;;;12.67;100.00
69667;BME280;66534;52.370;4.832;2023-05-20T01:34:43;102585.09;;;12.68;100.00
69667;BME280;66534;52.370;4.832;2023-05-20T01:35:15;102580.50;;;12.76;100.00
69667;BME280;66534;52.370;4.832;2023-05-20T01:35:46;102581.50;;;12.72;100.00
69667;BME280;66534;52.370;4.832;2023-05-20T01:36:17;102581.63;;;12.67;100.00
69667;BME280;66534;52.370;4.832;2023-05-20T01:36:50;102577.88;;;12.76;100.00
69667;BME280;66534;52.370;4.832;2023-05-20T01:37:21;102571.94;;;12.68;100.00
69667;BME280;66534;52.370;4.832;2023-05-20T01:37:54;102573.84;;;12.61;100.00
69667;BME280;66534;52.370;4.832;2023-05-20T01:38:27;102573.84;;;12.63;100.00
69667;BME280;66534;52.370;4.832;2023-05-20T01:38:59;102575.44;;;12.68;100.00
69667;BME280;66534;52.370;4.832;2023-05-20T01:39:32;102577.09;;;12.73;100.00
69667;BME280;66534;52.370;4.832;2023-05-20T01:40:08;102579.47;;;12.82;100.00
69667;BME280;66534;52.370;4.832;2023-05-20T01:40:39;102578.13;;;12.65;100.00
69667;BME280;66534;52.370;4.832;2023-05-20T01:41:11;102576.25;;;12.70;100.00
69667;BME280;66534;52.370;4.832;2023-05-20T01:41:42;102571.38;;;12.55;100.00
69667;BME280;66534;52.370;4.832;2023-05-20T01:42:14;102578.13;;;12.65;100.00
69667;BME280;66534;52.370;4.832;2023-05-20T01:42:45;102577.16;;;12.69;100.00
69667;BME280;66534;52.370;4.832;2023-05-20T01:43:21;102577.03;;;12.74;100.00
69667;BME280;66534;52.370;4.832;2023-05-20T01:43:53;102575.16;;;12.79;100.00
69667;BME280;66534;52.370;4.832;2023-05-20T01:44:24;102575.16;;;12.79;100.00
69667;BME280;66534;52.370;4.832;2023-05-20T01:44:55;102572.53;;;12.79;100.00
69667;BME280;66534;52.370;4.832;2023-05-20T01:45:25;102575.47;;;13.00;100.00
69667;BME280;66534;52.370;4.832;2023-05-20T01:45:56;102576.56;;;12.92;100.00
69667;BME280;66534;52.370;4.832;2023-05-20T01:46:26;102572.28;;;12.88;100.00
69667;BME280;66534;52.370;4.832;2023-05-20T01:47:01;102571.75;;;12.76;100.00
69667;BME280;66534;52.370;4.832;2023-05-20T01:47:31;102569.78;;;12.84;100.00
69667;BME280;66534;52.370;4.832;2023-05-20T01:48:02;102570.75;;;12.80;100.00
69667;BME280;66534;52.370;4.832;2023-05-20T01:48:33;102576.69;;;12.88;100.00
69667;BME280;66534;52.370;4.832;2023-05-20T01:49:03;102566.50;;;12.74;100.00
69667;BME280;66534;52.370;4.832;2023-05-20T01:49:34;102573.63;;;12.70;100.00
69667;BME280;66534;52.370;4.832;2023-05-20T01:50:04;102568.31;;;12.72;100.00
69667;BME280;66534;52.370;4.832;2023-05-20T01:50:35;102569.97;;;12.76;100.00
69667;BME280;66534;52.370;4.832;2023-05-20T01:51:06;102575.13;;;12.81;100.00
69667;BME280;66534;52.370;4.832;2023-05-20T01:51:37;102564.03;;;12.68;100.00
69667;BME280;66534;52.370;4.832;2023-05-20T01:52:07;102558.19;;;12.57;100.00
69667;BME280;66534;52.370;4.832;2023-05-20T01:52:37;102567.91;;;12.55;100.00
69667;BME280;66534;52.370;4.832;2023-05-20T01:53:08;102564.97;;;12.65;100.00
69667;BME280;66534;52.370;4.832;2023-05-20T01:53:38;102564.84;;;12.71;100.00
69667;BME280;66534;52.370;4.832;2023-05-20T01:54:09;102561.28;;;12.73;100.00
69667;BME280;66534;52.370;4.832;2023-05-20T01:54:39;102563.44;;;12.58;100.00
69667;BME280;66534;52.370;4.832;2023-05-20T01:55:10;102560.84;;;12.55;100.00
69667;BME280;66534;52.370;4.832;2023-05-20T01:55:40;102565.06;;;12.62;100.00
69667;BME280;66534;52.370;4.832;2023-05-20T01:56:10;102556.47;;;12.56;100.00
69667;BME280;66534;52.370;4.832;2023-05-20T01:56:41;102563.50;;;12.54;100.00
69667;BME280;66534;52.370;4.832;2023-05-20T01:57:11;102569.81;;;12.48;100.00
69667;BME280;66534;52.370;4.832;2023-05-20T01:57:42;102562.03;;;12.43;100.00
69667;BME280;66534;52.370;4.832;2023-05-20T01:58:12;102571.53;;;12.49;100.00
69667;BME280;66534;52.370;4.832;2023-05-20T01:58:42;102564.22;;;12.60;100.00
69667;BME280;66534;52.370;4.832;2023-05-20T01:59:13;102563.31;;;12.63;100.00
69667;BME280;66534;52.370;4.832;2023-05-20T01:59:43;102558.84;;;12.65;100.00
69667;BME280;66534;52.370;4.832;2023-05-20T02:00:14;102563.50;;;12.54;100.00
69667;BME280;66534;52.370;4.832;2023-05-20T02:00:44;102568.94;;;12.48;100.00
69667;BME280;66534;52.370;4.832;2023-05-20T02:01:15;102567.28;;;12.43;100.00
69667;BME280;66534;52.370;4.832;2023-05-20T02:01:45;102564.50;;;12.50;100.00
69667;BME280;66534;52.370;4.832;2023-05-20T02:02:15;102556.53;;;12.53;100.00
69667;BME280;66534;52.370;4.832;2023-05-20T02:02:46;102558.34;;;12.51;100.00
69667;BME280;66534;52.370;4.832;2023-05-20T02:03:17;102564.66;;;12.43;100.00
69667;BME280;66534;52.370;4.832;2023-05-20T02:03:47;102563.44;;;12.57;100.00
69667;BME280;66534;52.370;4.832;2023-05-20T02:04:17;102560.06;;;12.52;100.00
69667;BME280;66534;52.370;4.832;2023-05-20T02:04:49;102558.28;;;12.52;100.00
69667;BME280;66534;52.370;4.832;2023-05-20T02:05:20;102569.63;;;12.56;100.00
69667;BME280;66534;52.370;4.832;2023-05-20T02:05:51;102555.41;;;12.63;100.00
69667;BME280;66534;52.370;4.832;2023-05-20T02:06:22;102557.31;;;12.56;100.00
69667;BME280;66534;52.370;4.832;2023-05-20T02:06:52;102559.75;;;12.64;100.00
69667;BME280;66534;52.370;4.832;2023-05-20T02:07:23;102559.09;;;12.56;100.00
69667;BME280;66534;52.370;4.832;2023-05-20T02:07:53;102560.00;;;12.55;100.00
69667;BME280;66534;52.370;4.832;2023-05-20T02:08:24;102564.41;;;12.54;100.00
69667;BME280;66534;52.370;4.832;2023-05-20T02:08:55;102564.31;;;12.57;100.00
69667;BME280;66534;52.370;4.832;2023-05-20T02:09:25;102562.53;;;12.58;100.00
69667;BME280;66534;52.370;4.832;2023-05-20T02:09:56;102567.06;;;12.53;100.00
69667;BME280;66534;52.370;4.832;2023-05-20T02:10:26;102562.50;;;12.59;100.00
69667;BME280;66534;52.370;4.832;2023-05-20T02:10:56;102561.41;;;12.68;100.00
69667;BME280;66534;52.370;4.832;2023-05-20T02:11:27;102562.06;;;12.76;100.00
69667;BME280;66534;52.370;4.832;2023-05-20T02:11:57;102556.16;;;12.68;100.00
69667;BME280;66534;52.370;4.832;2023-05-20T02:12:27;102561.22;;;12.76;100.00
69667;BME280;66534;52.370;4.832;2023-05-20T02:12:58;102562.28;;;12.68;100.00
69667;BME280;66534;52.370;4.832;2023-05-20T02:13:28;102558.66;;;12.73;100.00
69667;BME280;66534;52.370;4.832;2023-05-20T02:13:59;102557.94;;;12.66;100.00
69667;BME280;66534;52.370;4.832;2023-05-20T02:14:29;102558.06;;;12.61;100.00
69667;BME280;66534;52.370;4.832;2023-05-20T02:14:59;102557.69;;;12.42;100.00
69667;BME280;66534;52.370;4.832;2023-05-20T02:15:30;102564.72;;;12.40;100.00
69667;BME280;66534;52.370;4.832;2023-05-20T02:16:00;102562.09;;;12.40;100.00
69667;BME280;66534;52.370;4.832;2023-05-20T02:16:31;102554.56;;;12.61;100.00
69667;BME280;66534;52.370;4.832;2023-05-20T02:17:01;102553.75;;;12.59;100.00
69667;BME280;66534;52.370;4.832;2023-05-20T02:17:32;102554.63;;;12.59;100.00
69667;BME280;66534;52.370;4.832;2023-05-20T02:18:02;102555.84;;;12.44;100.00
69667;BME280;66534;52.370;4.832;2023-05-20T02:18:34;102561.97;;;12.45;100.00
69667;BME280;66534;52.370;4.832;2023-05-20T02:19:04;102562.78;;;12.49;100.00
69667;BME280;66534;52.370;4.832;2023-05-20T02:19:35;102560.25;;;12.44;100.00
69667;BME280;66534;52.370;4.832;2023-05-20T02:20:06;102569.25;;;12.35;100.00
69667;BME280;66534;52.370;4.832;2023-05-20T02:20:37;102566.44;;;12.41;100.00
69667;BME280;66534;52.370;4.832;2023-05-20T02:21:08;102559.31;;;12.46;100.00
69667;BME280;66534;52.370;4.832;2023-05-20T02:21:41;102561.91;;;12.48;100.00
69667;BME280;66534;52.370;4.832;2023-05-20T02:22:13;102558.97;;;12.60;100.00
69667;BME280;66534;52.370;4.832;2023-05-20T02:22:43;102559.69;;;12.67;100.00
69667;BME280;66534;52.370;4.832;2023-05-20T02:23:14;102559.75;;;12.64;100.00
69667;BME280;66534;52.370;4.832;2023-05-20T02:23:44;102562.63;;;12.55;100.00
69667;BME280;66534;52.370;4.832;2023-05-20T02:24:15;102570.91;;;12.39;100.00
69667;BME280;66534;52.370;4.832;2023-05-20T02:24:46;102570.97;;;12.36;100.00
69667;BME280;66534;52.370;4.832;2023-05-20T02:25:16;102562.09;;;12.40;100.00
69667;BME280;66534;52.370;4.832;2023-05-20T02:25:47;102568.38;;;12.35;100.00
69667;BME280;66534;52.370;4.832;2023-05-20T02:26:17;102563.06;;;12.38;100.00
69667;BME280;66534;52.370;4.832;2023-05-20T02:26:49;102563.06;;;12.38;100.00
69667;BME280;66534;52.370;4.832;2023-05-20T02:27:20;102568.31;;;12.38;100.00
69667;BME280;66534;52.370;4.832;2023-05-20T02:27:51;102560.97;;;12.51;100.00
69667;BME280;66534;52.370;4.832;2023-05-20T02:28:21;102560.84;;;12.55;100.00
69667;BME280;66534;52.370;4.832;2023-05-20T02:28:52;102552.28;;;12.47;100.00
69667;BME280;66534;52.370;4.832;2023-05-20T02:29:22;102565.59;;;12.41;100.00
69667;BME280;66534;52.370;4.832;2023-05-20T02:29:53;102561.97;;;12.45;100.00
69667;BME280;66534;52.370;4.832;2023-05-20T02:30:23;102559.44;;;12.42;100.00
69667;BME280;66534;52.370;4.832;2023-05-20T02:30:53;102555.84;;;12.46;100.00
69667;BME280;66534;52.370;4.832;2023-05-20T02:31:24;102561.06;;;12.48;100.00
69667;BME280;66534;52.370;4.832;2023-05-20T02:31:55;102558.41;;;12.48;100.00
69667;BME280;66534;52.370;4.832;2023-05-20T02:32:25;102556.59;;;12.50;100.00
69667;BME280;66534;52.370;4.832;2023-05-20T02:32:57;102557.31;;;12.56;100.00
69667;BME280;66534;52.370;4.832;2023-05-20T02:33:28;102551.44;;;12.46;100.00
69667;BME280;66534;52.370;4.832;2023-05-20T02:33:59;102554.84;;;12.50;100.00
69667;BME280;66534;52.370;4.832;2023-05-20T02:34:30;102552.16;;;12.52;100.00
69667;BME280;66534;52.370;4.832;2023-05-20T02:35:01;102556.34;;;12.60;100.00
69667;BME280;66534;52.370;4.832;2023-05-20T02:35:31;102555.41;;;12.63;100.00
69667;BME280;66534;52.370;4.832;2023-05-20T02:36:02;102551.06;;;12.60;100.00
69667;BME280;66534;52.370;4.832;2023-05-20T02:36:32;102554.19;;;12.76;100.00
69667;BME280;66534;52.370;4.832;2023-05-20T02:37:03;102552.84;;;12.60;100.00
69667;BME280;66534;52.370;4.832;2023-05-20T02:37:33;102560.84;;;12.55;100.00
69667;BME280;66534;52.370;4.832;2023-05-20T02:38:03;102552.84;;;12.60;100.00
69667;BME280;66534;52.370;4.832;2023-05-20T02:38:34;102556.47;;;12.56;100.00
69667;BME280;66534;52.370;4.832;2023-05-20T02:39:05;102565.97;;;12.61;100.00
69667;BME280;66534;52.370;4.832;2023-05-20T02:39:35;102476.22;;;12.02;100.00
69667;BME280;66534;52.370;4.832;2023-05-20T02:40:05;102565.41;;;12.49;100.00
69667;BME280;66534;52.370;4.832;2023-05-20T02:40:38;102557.44;;;12.52;100.00
69667;BME280;66534;52.370;4.832;2023-05-20T02:41:08;102558.03;;;12.63;100.00